createdAt,value
2022-10-13T00:02:22.619Z,55.6
2022-10-13T00:07:22.401Z,55.8
2022-10-13T00:12:22.210Z,56.1
2022-10-13T00:17:24.573Z,55.9
2022-10-13T00:22:23.611Z,55.8
2022-10-13T00:27:23.477Z,56
2022-10-13T00:32:25.082Z,55.7
2022-10-13T00:37:24.668Z,55.8
2022-10-13T00:42:24.472Z,56.1
2022-10-13T00:47:27.176Z,55.9
2022-10-13T00:52:26.716Z,55.7
2022-10-13T00:57:26.482Z,55.9
2022-10-13T01:02:28.936Z,55.7
2022-10-13T01:07:31.175Z,55.6
2022-10-13T01:12:30.243Z,55.8
2022-10-13T01:17:29.881Z,55.5
2022-10-13T01:22:29.501Z,55.5
2022-10-13T01:27:29.465Z,55.5
2022-10-13T01:32:32.279Z,55.5
2022-10-13T01:37:31.601Z,55.6
2022-10-13T01:42:33.915Z,55.6
2022-10-13T01:47:33.515Z,55.9
2022-10-13T01:52:33.247Z,55.9
2022-10-13T01:57:32.800Z,55.9
2022-10-13T02:02:35.149Z,55.7
2022-10-13T02:07:37.293Z,55.8
2022-10-13T02:12:36.461Z,55.7
2022-10-13T02:17:36.389Z,55.9
2022-10-13T02:22:38.625Z,56
2022-10-13T02:27:40.671Z,56.1
2022-10-13T02:32:42.722Z,55.8
2022-10-13T02:37:41.883Z,55.8
2022-10-13T02:42:44.619Z,55.8
2022-10-13T02:47:46.612Z,56.1
2022-10-13T02:52:48.763Z,56
2022-10-13T02:57:47.994Z,56.1
2022-10-13T03:02:47.831Z,56.2
2022-10-13T03:07:50.479Z,56.2
2022-10-13T03:12:52.763Z,56.2
2022-10-13T03:17:54.425Z,56
2022-10-13T03:22:53.900Z,56
2022-10-13T03:27:56.546Z,56.3
2022-10-13T03:32:55.551Z,56
2022-10-13T03:37:58.067Z,56
2022-10-13T03:42:57.470Z,56.1
2022-10-13T03:47:59.770Z,55.9
2022-10-13T03:52:59.170Z,56.2
2022-10-13T03:57:59.006Z,56.1
2022-10-13T04:03:00.668Z,55.9
2022-10-13T04:08:00.391Z,56.2
2022-10-13T04:13:00.030Z,56.2
2022-10-13T04:17:59.880Z,56.2
2022-10-13T04:22:59.839Z,56.3
2022-10-13T04:27:59.741Z,56.4
2022-10-13T04:32:59.359Z,56.3
2022-10-13T04:37:58.698Z,56.5
2022-10-13T04:42:58.687Z,56.4
2022-10-13T04:47:58.573Z,56.4
2022-10-13T04:52:58.414Z,56.4
2022-10-13T04:57:58.192Z,56.5
2022-10-13T05:02:58.077Z,56.5
2022-10-13T05:07:58.070Z,56.3
2022-10-13T05:12:57.987Z,56.3
2022-10-13T05:18:01.011Z,56.3
2022-10-13T05:23:00.526Z,56.4
2022-10-13T05:28:03.374Z,56.4
2022-10-13T05:33:02.780Z,56.9
2022-10-13T05:38:05.179Z,56.8
2022-10-13T05:43:04.527Z,56.9
2022-10-13T05:48:06.867Z,56.9
2022-10-13T05:53:07.993Z,56.7
2022-10-13T05:58:07.617Z,56.7
2022-10-13T06:03:07.347Z,56.5
2022-10-13T06:08:10.143Z,56.3
2022-10-13T06:13:12.523Z,56.2
2022-10-13T06:18:14.647Z,55.7
2022-10-13T06:23:13.971Z,55.4
2022-10-13T06:28:14.677Z,55
2022-10-13T06:33:13.311Z,54.5
2022-10-13T06:38:13.268Z,54.4
2022-10-13T06:43:15.720Z,54.2
2022-10-13T06:48:15.156Z,54.1
2022-10-13T06:53:14.995Z,54.2
2022-10-13T06:58:17.432Z,54
2022-10-13T07:03:19.662Z,54
2022-10-13T07:08:19.098Z,54.2
2022-10-13T07:13:19.077Z,54.3
2022-10-13T07:18:18.902Z,54.3
2022-10-13T07:23:18.931Z,54.3
2022-10-13T07:28:21.653Z,54.2
2022-10-13T07:33:21.040Z,54.2
2022-10-13T07:38:20.989Z,54.2
2022-10-13T07:43:20.828Z,54.1
2022-10-13T07:53:23.423Z,54.2
2022-10-13T07:58:25.466Z,54.3
2022-10-13T08:03:24.802Z,54.1
2022-10-13T08:08:24.878Z,54.1
2022-10-13T08:13:24.624Z,54.2
2022-10-13T08:18:24.122Z,54
2022-10-13T08:23:23.954Z,53.9
2022-10-13T08:28:23.882Z,54
2022-10-13T08:33:23.662Z,53.9
2022-10-13T08:38:22.880Z,53.9
2022-10-13T08:43:22.823Z,53.8
2022-10-13T08:48:22.636Z,54.2
2022-10-13T08:53:25.191Z,54.2
2022-10-13T08:58:24.410Z,54.2
2022-10-13T09:03:27.003Z,54.3
2022-10-13T09:08:26.472Z,54.1
2022-10-13T09:13:28.912Z,54.2
2022-10-13T09:18:30.823Z,54.4
2022-10-13T09:23:32.820Z,54.4
2022-10-13T09:28:34.774Z,54.5
2022-10-13T09:33:34.213Z,54.7
2022-10-13T09:38:34.169Z,55
2022-10-13T09:43:33.788Z,55
2022-10-13T09:48:33.365Z,55
2022-10-13T09:53:33.131Z,55.1
2022-10-13T09:58:32.969Z,55.2
2022-10-13T10:03:35.617Z,55.3
2022-10-13T10:08:51.226Z,55.4
2022-10-13T10:13:37.399Z,55.4
2022-10-13T10:18:36.456Z,55.5
2022-10-13T10:23:36.070Z,55.5
2022-10-13T10:28:36.026Z,55.5
2022-10-13T10:33:38.676Z,55.3
2022-10-13T10:38:38.110Z,55.3
2022-10-13T10:43:37.918Z,55.4
2022-10-13T10:48:38.027Z,55.4
2022-10-13T10:53:40.757Z,55.3
2022-10-13T10:58:42.665Z,55.3
2022-10-13T11:03:42.200Z,55.3
2022-10-13T11:08:41.882Z,55.3
2022-10-13T11:13:41.837Z,55.2
2022-10-13T11:18:41.306Z,55.6
2022-10-13T11:23:41.260Z,55.6
2022-10-13T11:28:43.705Z,55.6
2022-10-13T11:33:45.671Z,55.7
2022-10-13T11:38:44.812Z,55.8
2022-10-13T11:43:47.673Z,55.6
2022-10-13T11:48:49.909Z,55.5
2022-10-13T11:53:52.081Z,55.8
2022-10-13T11:58:51.362Z,56.1
2022-10-13T12:03:51.126Z,56.3
2022-10-13T12:08:53.740Z,57.1
2022-10-13T12:13:53.171Z,56.8
2022-10-13T12:18:55.788Z,56.9
2022-10-13T12:23:58.099Z,56.7
2022-10-13T12:28:57.650Z,56.9
2022-10-13T12:33:57.440Z,57.6
2022-10-13T12:38:57.318Z,57.4
2022-10-13T12:43:59.881Z,57.3
2022-10-13T12:48:57.336Z,56.9
2022-10-13T12:53:57.083Z,56.6
2022-10-13T12:58:59.312Z,56.7
2022-10-13T13:03:58.655Z,56.8
2022-10-13T13:08:58.318Z,71.2
2022-10-13T13:13:57.940Z,76.6
2022-10-13T13:18:57.832Z,71.5
2022-10-13T13:23:59.342Z,70.7
2022-10-13T13:28:57.997Z,68.4
2022-10-13T13:34:00.663Z,66.5
2022-10-13T13:39:03.039Z,67.4
2022-10-13T13:44:04.406Z,65.6
2022-10-13T13:49:06.552Z,65
2022-10-13T13:54:08.821Z,64.6
2022-10-13T13:59:10.698Z,64.8
2022-10-13T14:04:12.702Z,63.9
2022-10-13T14:09:14.520Z,63.5
2022-10-13T14:14:13.706Z,63.6
2022-10-13T14:19:15.890Z,63.2
2022-10-13T14:24:17.886Z,63.2
2022-10-13T14:29:19.769Z,63.1
2022-10-13T14:34:21.660Z,63.5
2022-10-13T14:39:23.767Z,64
2022-10-13T14:44:23.015Z,63.6
2022-10-13T14:49:22.638Z,63.4
2022-10-13T14:54:22.339Z,62.9
2022-10-13T14:59:24.912Z,65.4
2022-10-13T15:04:24.238Z,64.9
2022-10-13T15:09:29.018Z,64.9
2022-10-13T15:14:26.740Z,65
2022-10-13T15:19:25.973Z,64.6
2022-10-13T15:24:28.344Z,63.6
2022-10-13T15:29:27.821Z,64.6
2022-10-13T15:34:30.439Z,63.4
2022-10-13T15:39:29.624Z,63.4
2022-10-13T15:44:36.495Z,63.3
2022-10-13T15:49:31.923Z,63.3
2022-10-13T15:54:30.893Z,63
2022-10-13T15:59:30.586Z,62.4
2022-10-13T16:04:34.952Z,62.4
2022-10-13T16:09:30.095Z,62.9
2022-10-13T16:14:32.740Z,62.6
2022-10-13T16:19:31.864Z,62.4
2022-10-13T16:24:31.615Z,62.4
2022-10-13T16:29:31.219Z,62.4
2022-10-13T16:34:30.894Z,62.4
2022-10-13T16:39:31.274Z,62.2
2022-10-13T16:44:31.089Z,62.1
2022-10-13T16:49:33.570Z,62.5
2022-10-13T16:54:32.967Z,62.5
2022-10-13T16:59:32.618Z,62.6
2022-10-13T17:04:32.256Z,62.4
2022-10-13T17:09:31.895Z,62.5
2022-10-13T17:14:31.554Z,62.1
2022-10-13T17:19:34.328Z,62.1
2022-10-13T17:24:33.599Z,61.9
2022-10-13T17:29:33.291Z,62.1
2022-10-13T17:34:32.856Z,61.9
2022-10-13T17:39:33.142Z,61.7
2022-10-13T17:44:32.651Z,61.6
2022-10-13T17:49:32.285Z,61.5
2022-10-13T17:54:32.171Z,61.3
2022-10-13T17:59:32.417Z,61.7
2022-10-13T18:04:34.909Z,61.5
2022-10-13T18:09:34.209Z,61.3
2022-10-13T18:14:33.968Z,61.5
2022-10-13T18:19:37.901Z,61.4
2022-10-13T18:24:33.367Z,61.4
2022-10-13T18:29:32.936Z,61.3
2022-10-13T18:34:32.519Z,61.4
2022-10-13T18:39:31.964Z,61.3
2022-10-13T18:44:31.487Z,61.3
2022-10-13T18:49:31.375Z,61
2022-10-13T18:54:30.835Z,61
2022-10-13T18:59:30.731Z,61.1
2022-10-13T19:04:30.459Z,61
2022-10-13T19:09:30.169Z,61.3
2022-10-13T19:14:30.039Z,61.1
2022-10-13T19:19:29.724Z,61
2022-10-13T19:24:29.343Z,61.1
2022-10-13T19:29:29.424Z,61
2022-10-13T19:34:29.145Z,60.8
2022-10-13T19:39:29.189Z,60.8
2022-10-13T19:44:28.896Z,60.7
2022-10-13T19:49:28.979Z,60.5
2022-10-13T19:54:33.019Z,60.4
2022-10-13T19:59:28.689Z,60.3
2022-10-13T20:04:28.359Z,60.4
2022-10-13T20:09:28.176Z,60.4
2022-10-13T20:14:28.159Z,60.1
2022-10-13T20:19:30.877Z,60.3
2022-10-13T20:24:30.370Z,60.3
2022-10-13T20:29:33.063Z,60.3
2022-10-13T20:34:32.246Z,60
2022-10-13T20:39:32.097Z,60.1
2022-10-13T20:44:34.606Z,60.1
2022-10-13T20:49:34.121Z,60
2022-10-13T20:54:33.808Z,60.2
2022-10-13T20:59:33.435Z,60.1
2022-10-13T21:04:36.208Z,59.9
2022-10-13T21:09:35.195Z,59.8
2022-10-13T21:14:37.590Z,59.7
2022-10-13T21:19:39.766Z,59.7
2022-10-13T21:24:41.800Z,59.8
2022-10-13T21:29:43.914Z,59.8
2022-10-13T21:34:43.043Z,59.9
2022-10-13T21:39:45.461Z,59.9
2022-10-13T21:44:44.935Z,59.7
2022-10-13T21:49:44.830Z,59.8
2022-10-13T21:54:44.747Z,59.6
2022-10-13T21:59:44.531Z,59.6
2022-10-13T22:04:44.423Z,59.7
2022-10-13T22:09:44.628Z,59.6
2022-10-13T22:14:44.477Z,59.5
2022-10-13T22:19:46.894Z,59.8
2022-10-13T22:24:48.795Z,59.7
2022-10-13T22:29:47.856Z,59.4
2022-10-13T22:34:50.111Z,59.7
2022-10-13T22:39:49.596Z,59.4
2022-10-13T22:44:49.271Z,59.7
2022-10-13T22:49:49.073Z,59.3
2022-10-13T22:54:48.944Z,59.3
2022-10-13T22:59:51.536Z,59.3
2022-10-13T23:04:51.003Z,59
2022-10-13T23:09:50.655Z,59.2
2022-10-13T23:14:50.098Z,59.5
2022-10-13T23:19:52.607Z,59
2022-10-13T23:24:54.742Z,59.3
2022-10-13T23:29:53.918Z,59.4
2022-10-13T23:34:53.708Z,59.3
2022-10-13T23:39:53.527Z,59.2
2022-10-13T23:44:53.475Z,59.1
2022-10-13T23:49:53.279Z,59.2
2022-10-13T23:54:55.666Z,58.9
2022-10-13T23:59:57.705Z,58.6
